sensor_id;sensor_type;location;lat;lon;timestamp;P1;durP1;ratioP1;P2;durP2;ratioP2
64210;SDS011;50528;48.514;14.394;2023-07-02T00:00:41;5.50;;;4.00;;
64210;SDS011;50528;48.514;14.394;2023-07-02T00:01:34;7.00;;;3.90;;
64210;SDS011;50528;48.514;14.394;2023-07-02T00:02:08;6.80;;;3.70;;
64210;SDS011;50528;48.514;14.394;2023-07-02T00:02:41;6.20;;;3.80;;
64210;SDS011;50528;48.514;14.394;2023-07-02T00:03:15;5.80;;;3.90;;
64210;SDS011;50528;48.514;14.394;2023-07-02T00:03:48;4.90;;;3.70;;
64210;SDS011;50528;48.514;14.394;2023-07-02T00:04:22;5.50;;;3.90;;
64210;SDS011;50528;48.514;14.394;2023-07-02T00:04:55;6.40;;;3.80;;
64210;SDS011;50528;48.514;14.394;2023-07-02T00:05:28;5.60;;;3.90;;
64210;SDS011;50528;48.514;14.394;2023-07-02T00:06:02;5.40;;;3.60;;
64210;SDS011;50528;48.514;14.394;2023-07-02T00:06:35;5.70;;;3.70;;
64210;SDS011;50528;48.514;14.394;2023-07-02T00:07:13;6.30;;;3.80;;
64210;SDS011;50528;48.514;14.394;2023-07-02T00:07:49;4.70;;;3.80;;
64210;SDS011;50528;48.514;14.394;2023-07-02T00:08:23;4.50;;;3.80;;
64210;SDS011;50528;48.514;14.394;2023-07-02T00:08:56;6.60;;;3.90;;
64210;SDS011;50528;48.514;14.394;2023-07-02T00:09:33;7.60;;;3.70;;
64210;SDS011;50528;48.514;14.394;2023-07-02T00:10:07;9.00;;;4.00;;
64210;SDS011;50528;48.514;14.394;2023-07-02T00:10:41;6.10;;;3.40;;
64210;SDS011;50528;48.514;14.394;2023-07-02T00:11:16;5.30;;;3.70;;
64210;SDS011;50528;48.514;14.394;2023-07-02T00:11:50;5.30;;;3.60;;
64210;SDS011;50528;48.514;14.394;2023-07-02T00:12:24;7.40;;;3.50;;
64210;SDS011;50528;48.514;14.394;2023-07-02T00:12:58;6.10;;;3.40;;
64210;SDS011;50528;48.514;14.394;2023-07-02T00:13:48;5.10;;;3.50;;
64210;SDS011;50528;48.514;14.394;2023-07-02T00:14:38;6.20;;;3.50;;
64210;SDS011;50528;48.514;14.394;2023-07-02T00:15:30;5.10;;;3.80;;
64210;SDS011;50528;48.514;14.394;2023-07-02T00:16:42;4.80;;;3.40;;
64210;SDS011;50528;48.514;14.394;2023-07-02T00:17:36;5.90;;;3.30;;
64210;SDS011;50528;48.514;14.394;2023-07-02T00:18:29;5.40;;;3.50;;
64210;SDS011;50528;48.514;14.394;2023-07-02T00:20:19;5.30;;;3.60;;
64210;SDS011;50528;48.514;14.394;2023-07-02T00:20:52;5.20;;;3.50;;
64210;SDS011;50528;48.514;14.394;2023-07-02T00:21:26;4.80;;;3.50;;
64210;SDS011;50528;48.514;14.394;2023-07-02T00:22:00;4.50;;;3.40;;
64210;SDS011;50528;48.514;14.394;2023-07-02T00:22:35;4.70;;;3.50;;
64210;SDS011;50528;48.514;14.394;2023-07-02T00:23:09;6.10;;;3.50;;
64210;SDS011;50528;48.514;14.394;2023-07-02T00:23:43;5.20;;;3.60;;
64210;SDS011;50528;48.514;14.394;2023-07-02T00:24:16;4.50;;;3.60;;
64210;SDS011;50528;48.514;14.394;2023-07-02T00:24:49;4.70;;;3.70;;
64210;SDS011;50528;48.514;14.394;2023-07-02T00:25:24;4.40;;;3.40;;
64210;SDS011;50528;48.514;14.394;2023-07-02T00:25:58;4.40;;;3.40;;
64210;SDS011;50528;48.514;14.394;2023-07-02T00:26:31;5.60;;;3.70;;
64210;SDS011;50528;48.514;14.394;2023-07-02T00:27:04;5.00;;;3.70;;
64210;SDS011;50528;48.514;14.394;2023-07-02T00:27:38;5.50;;;3.40;;
64210;SDS011;50528;48.514;14.394;2023-07-02T00:28:12;6.40;;;3.30;;
64210;SDS011;50528;48.514;14.394;2023-07-02T00:28:45;5.40;;;3.30;;
64210;SDS011;50528;48.514;14.394;2023-07-02T00:29:18;5.40;;;3.80;;
64210;SDS011;50528;48.514;14.394;2023-07-02T00:29:52;6.40;;;3.90;;
64210;SDS011;50528;48.514;14.394;2023-07-02T00:30:25;5.60;;;3.70;;
64210;SDS011;50528;48.514;14.394;2023-07-02T00:30:59;4.70;;;3.30;;
64210;SDS011;50528;48.514;14.394;2023-07-02T00:31:32;7.50;;;3.80;;
64210;SDS011;50528;48.514;14.394;2023-07-02T00:32:07;5.40;;;3.60;;
64210;SDS011;50528;48.514;14.394;2023-07-02T00:32:40;4.90;;;3.80;;
64210;SDS011;50528;48.514;14.394;2023-07-02T00:33:14;4.50;;;3.80;;
64210;SDS011;50528;48.514;14.394;2023-07-02T00:33:48;4.40;;;3.70;;
64210;SDS011;50528;48.514;14.394;2023-07-02T00:34:23;5.60;;;3.60;;
64210;SDS011;50528;48.514;14.394;2023-07-02T00:34:56;5.10;;;3.40;;
64210;SDS011;50528;48.514;14.394;2023-07-02T00:35:29;5.00;;;3.50;;
64210;SDS011;50528;48.514;14.394;2023-07-02T00:36:03;7.50;;;3.70;;
64210;SDS011;50528;48.514;14.394;2023-07-02T00:36:36;6.30;;;3.60;;
64210;SDS011;50528;48.514;14.394;2023-07-02T00:37:09;5.30;;;3.50;;
64210;SDS011;50528;48.514;14.394;2023-07-02T00:37:43;4.70;;;3.30;;
64210;SDS011;50528;48.514;14.394;2023-07-02T00:38:16;5.80;;;3.80;;
64210;SDS011;50528;48.514;14.394;2023-07-02T00:38:50;5.00;;;3.50;;
64210;SDS011;50528;48.514;14.394;2023-07-02T00:39:23;4.50;;;3.50;;
64210;SDS011;50528;48.514;14.394;2023-07-02T00:39:56;6.20;;;3.90;;
64210;SDS011;50528;48.514;14.394;2023-07-02T00:40:30;4.50;;;3.70;;
64210;SDS011;50528;48.514;14.394;2023-07-02T00:41:04;5.10;;;3.70;;
64210;SDS011;50528;48.514;14.394;2023-07-02T00:41:37;6.00;;;3.90;;
64210;SDS011;50528;48.514;14.394;2023-07-02T00:42:11;7.00;;;4.00;;
64210;SDS011;50528;48.514;14.394;2023-07-02T00:42:45;6.20;;;3.60;;
64210;SDS011;50528;48.514;14.394;2023-07-02T00:43:21;7.10;;;3.70;;
64210;SDS011;50528;48.514;14.394;2023-07-02T00:44:59;6.00;;;3.90;;
64210;SDS011;50528;48.514;14.394;2023-07-02T00:45:51;6.00;;;3.70;;
64210;SDS011;50528;48.514;14.394;2023-07-02T00:46:25;5.40;;;3.50;;
64210;SDS011;50528;48.514;14.394;2023-07-02T00:46:59;7.30;;;3.60;;
64210;SDS011;50528;48.514;14.394;2023-07-02T00:47:34;4.10;;;3.40;;
64210;SDS011;50528;48.514;14.394;2023-07-02T00:48:08;5.00;;;3.80;;
64210;SDS011;50528;48.514;14.394;2023-07-02T00:48:41;4.90;;;3.70;;
64210;SDS011;50528;48.514;14.394;2023-07-02T00:49:19;5.70;;;3.80;;
64210;SDS011;50528;48.514;14.394;2023-07-02T00:49:53;6.10;;;3.70;;
64210;SDS011;50528;48.514;14.394;2023-07-02T00:50:26;7.10;;;3.70;;
64210;SDS011;50528;48.514;14.394;2023-07-02T00:51:00;5.40;;;3.60;;
64210;SDS011;50528;48.514;14.394;2023-07-02T00:51:34;4.60;;;3.50;;
64210;SDS011;50528;48.514;14.394;2023-07-02T00:52:07;7.60;;;3.50;;
64210;SDS011;50528;48.514;14.394;2023-07-02T00:52:41;6.10;;;3.50;;
64210;SDS011;50528;48.514;14.394;2023-07-02T00:53:14;4.10;;;3.30;;
64210;SDS011;50528;48.514;14.394;2023-07-02T00:53:49;5.40;;;3.20;;
64210;SDS011;50528;48.514;14.394;2023-07-02T00:54:24;5.30;;;3.20;;
64210;SDS011;50528;48.514;14.394;2023-07-02T00:54:57;5.50;;;3.30;;
64210;SDS011;50528;48.514;14.394;2023-07-02T00:55:30;5.80;;;3.70;;
64210;SDS011;50528;48.514;14.394;2023-07-02T00:56:04;5.50;;;3.60;;
64210;SDS011;50528;48.514;14.394;2023-07-02T00:56:37;5.50;;;3.50;;
64210;SDS011;50528;48.514;14.394;2023-07-02T00:57:10;5.60;;;3.50;;
64210;SDS011;50528;48.514;14.394;2023-07-02T00:57:44;5.10;;;3.30;;
64210;SDS011;50528;48.514;14.394;2023-07-02T00:58:19;6.00;;;3.50;;
64210;SDS011;50528;48.514;14.394;2023-07-02T00:58:54;5.50;;;3.60;;
64210;SDS011;50528;48.514;14.394;2023-07-02T00:59:32;8.20;;;3.70;;
64210;SDS011;50528;48.514;14.394;2023-07-02T01:00:11;4.60;;;3.40;;
64210;SDS011;50528;48.514;14.394;2023-07-02T01:00:45;6.40;;;3.60;;
64210;SDS011;50528;48.514;14.394;2023-07-02T01:01:19;4.40;;;3.40;;
64210;SDS011;50528;48.514;14.394;2023-07-02T01:01:55;6.40;;;3.50;;
64210;SDS011;50528;48.514;14.394;2023-07-02T01:02:29;5.50;;;3.40;;
64210;SDS011;50528;48.514;14.394;2023-07-02T01:03:03;6.60;;;3.60;;
64210;SDS011;50528;48.514;14.394;2023-07-02T01:03:37;5.20;;;3.40;;
64210;SDS011;50528;48.514;14.394;2023-07-02T01:04:10;5.50;;;3.40;;
64210;SDS011;50528;48.514;14.394;2023-07-02T01:04:47;4.80;;;3.30;;
64210;SDS011;50528;48.514;14.394;2023-07-02T01:05:23;4.50;;;3.30;;
64210;SDS011;50528;48.514;14.394;2023-07-02T01:05:56;3.90;;;2.90;;
64210;SDS011;50528;48.514;14.394;2023-07-02T01:06:31;5.90;;;3.50;;
64210;SDS011;50528;48.514;14.394;2023-07-02T01:07:06;4.50;;;3.40;;
64210;SDS011;50528;48.514;14.394;2023-07-02T01:07:46;4.20;;;3.30;;
64210;SDS011;50528;48.514;14.394;2023-07-02T01:08:20;6.30;;;3.80;;
64210;SDS011;50528;48.514;14.394;2023-07-02T01:08:57;5.30;;;3.60;;
64210;SDS011;50528;48.514;14.394;2023-07-02T01:09:34;4.60;;;3.40;;
64210;SDS011;50528;48.514;14.394;2023-07-02T01:10:07;6.00;;;3.20;;
64210;SDS011;50528;48.514;14.394;2023-07-02T01:10:41;5.60;;;3.60;;
64210;SDS011;50528;48.514;14.394;2023-07-02T01:11:15;5.20;;;3.60;;
64210;SDS011;50528;48.514;14.394;2023-07-02T01:11:49;6.20;;;3.50;;
64210;SDS011;50528;48.514;14.394;2023-07-02T01:12:27;4.60;;;3.30;;
64210;SDS011;50528;48.514;14.394;2023-07-02T01:13:02;5.50;;;3.40;;
64210;SDS011;50528;48.514;14.394;2023-07-02T01:13:49;5.20;;;3.70;;
64210;SDS011;50528;48.514;14.394;2023-07-02T01:14:27;5.10;;;3.20;;
64210;SDS011;50528;48.514;14.394;2023-07-02T01:15:04;5.70;;;3.30;;
64210;SDS011;50528;48.514;14.394;2023-07-02T01:15:38;5.40;;;3.50;;
64210;SDS011;50528;48.514;14.394;2023-07-02T01:16:12;5.70;;;3.50;;
64210;SDS011;50528;48.514;14.394;2023-07-02T01:16:46;5.00;;;3.20;;
64210;SDS011;50528;48.514;14.394;2023-07-02T01:17:20;4.70;;;3.50;;
64210;SDS011;50528;48.514;14.394;2023-07-02T01:17:55;5.60;;;3.50;;
64210;SDS011;50528;48.514;14.394;2023-07-02T01:18:30;5.30;;;3.60;;
64210;SDS011;50528;48.514;14.394;2023-07-02T01:19:04;4.90;;;3.50;;
64210;SDS011;50528;48.514;14.394;2023-07-02T01:19:54;5.50;;;3.60;;
64210;SDS011;50528;48.514;14.394;2023-07-02T01:20:32;4.40;;;3.40;;
64210;SDS011;50528;48.514;14.394;2023-07-02T01:21:07;5.90;;;3.70;;
64210;SDS011;50528;48.514;14.394;2023-07-02T01:21:41;5.00;;;3.40;;
64210;SDS011;50528;48.514;14.394;2023-07-02T01:22:14;4.80;;;3.40;;
64210;SDS011;50528;48.514;14.394;2023-07-02T01:22:48;5.60;;;3.40;;
64210;SDS011;50528;48.514;14.394;2023-07-02T01:23:24;4.60;;;3.50;;
64210;SDS011;50528;48.514;14.394;2023-07-02T01:23:58;5.40;;;3.70;;
64210;SDS011;50528;48.514;14.394;2023-07-02T01:24:36;5.60;;;3.50;;
64210;SDS011;50528;48.514;14.394;2023-07-02T01:25:12;5.40;;;3.60;;
64210;SDS011;50528;48.514;14.394;2023-07-02T01:25:50;5.50;;;3.50;;
64210;SDS011;50528;48.514;14.394;2023-07-02T01:26:26;5.00;;;3.30;;
64210;SDS011;50528;48.514;14.394;2023-07-02T01:27:02;5.30;;;3.50;;
64210;SDS011;50528;48.514;14.394;2023-07-02T01:27:35;5.90;;;3.50;;
64210;SDS011;50528;48.514;14.394;2023-07-02T01:28:10;5.80;;;3.60;;
64210;SDS011;50528;48.514;14.394;2023-07-02T01:28:46;5.50;;;3.40;;
64210;SDS011;50528;48.514;14.394;2023-07-02T01:29:20;5.30;;;3.30;;
64210;SDS011;50528;48.514;14.394;2023-07-02T01:29:53;5.50;;;3.30;;
64210;SDS011;50528;48.514;14.394;2023-07-02T01:30:27;5.20;;;3.10;;
64210;SDS011;50528;48.514;14.394;2023-07-02T01:31:00;5.30;;;3.40;;
64210;SDS011;50528;48.514;14.394;2023-07-02T01:31:34;5.30;;;3.30;;
64210;SDS011;50528;48.514;14.394;2023-07-02T01:32:07;5.10;;;3.60;;
64210;SDS011;50528;48.514;14.394;2023-07-02T01:32:44;5.00;;;3.10;;
64210;SDS011;50528;48.514;14.394;2023-07-02T01:33:17;5.50;;;3.10;;
64210;SDS011;50528;48.514;14.394;2023-07-02T01:33:51;6.50;;;3.30;;
64210;SDS011;50528;48.514;14.394;2023-07-02T01:34:25;4.20;;;3.10;;
64210;SDS011;50528;48.514;14.394;2023-07-02T01:34:58;5.20;;;3.20;;
64210;SDS011;50528;48.514;14.394;2023-07-02T01:35:36;5.10;;;3.10;;
64210;SDS011;50528;48.514;14.394;2023-07-02T01:36:10;5.10;;;3.30;;
64210;SDS011;50528;48.514;14.394;2023-07-02T01:36:44;4.60;;;3.10;;
64210;SDS011;50528;48.514;14.394;2023-07-02T01:37:17;4.30;;;3.10;;
64210;SDS011;50528;48.514;14.394;2023-07-02T01:37:51;4.60;;;3.10;;
64210;SDS011;50528;48.514;14.394;2023-07-02T01:38:24;4.30;;;3.20;;
64210;SDS011;50528;48.514;14.394;2023-07-02T01:38:58;5.40;;;3.30;;
64210;SDS011;50528;48.514;14.394;2023-07-02T01:39:32;6.80;;;3.30;;
64210;SDS011;50528;48.514;14.394;2023-07-02T01:40:05;5.10;;;3.10;;
64210;SDS011;50528;48.514;14.394;2023-07-02T01:40:39;6.60;;;3.30;;
64210;SDS011;50528;48.514;14.394;2023-07-02T01:41:13;6.30;;;3.30;;
64210;SDS011;50528;48.514;14.394;2023-07-02T01:41:53;4.60;;;3.40;;
64210;SDS011;50528;48.514;14.394;2023-07-02T01:42:28;4.80;;;3.00;;
64210;SDS011;50528;48.514;14.394;2023-07-02T01:43:01;4.00;;;3.20;;
64210;SDS011;50528;48.514;14.394;2023-07-02T01:43:35;4.70;;;3.10;;
64210;SDS011;50528;48.514;14.394;2023-07-02T01:44:08;6.30;;;3.10;;
64210;SDS011;50528;48.514;14.394;2023-07-02T01:44:44;7.50;;;3.10;;
64210;SDS011;50528;48.514;14.394;2023-07-02T01:45:18;4.80;;;3.00;;
64210;SDS011;50528;48.514;14.394;2023-07-02T01:45:51;4.90;;;2.90;;
64210;SDS011;50528;48.514;14.394;2023-07-02T01:46:25;5.00;;;2.90;;
64210;SDS011;50528;48.514;14.394;2023-07-02T01:46:58;4.70;;;2.80;;
64210;SDS011;50528;48.514;14.394;2023-07-02T01:47:34;4.00;;;3.00;;
64210;SDS011;50528;48.514;14.394;2023-07-02T01:48:11;4.30;;;2.80;;
64210;SDS011;50528;48.514;14.394;2023-07-02T01:48:44;4.10;;;3.10;;
64210;SDS011;50528;48.514;14.394;2023-07-02T01:51:16;4.70;;;2.70;;
64210;SDS011;50528;48.514;14.394;2023-07-02T01:51:51;5.60;;;3.00;;
64210;SDS011;50528;48.514;14.394;2023-07-02T01:52:25;6.10;;;2.90;;
64210;SDS011;50528;48.514;14.394;2023-07-02T01:52:59;5.20;;;2.80;;
64210;SDS011;50528;48.514;14.394;2023-07-02T01:53:33;6.30;;;2.70;;
64210;SDS011;50528;48.514;14.394;2023-07-02T01:54:07;4.10;;;2.60;;
64210;SDS011;50528;48.514;14.394;2023-07-02T01:54:41;6.70;;;2.80;;
64210;SDS011;50528;48.514;14.394;2023-07-02T01:55:15;8.90;;;3.10;;
64210;SDS011;50528;48.514;14.394;2023-07-02T01:55:53;8.70;;;3.00;;
64210;SDS011;50528;48.514;14.394;2023-07-02T01:56:26;5.00;;;3.00;;
64210;SDS011;50528;48.514;14.394;2023-07-02T01:57:01;4.10;;;2.80;;
64210;SDS011;50528;48.514;14.394;2023-07-02T01:57:35;5.80;;;2.80;;
64210;SDS011;50528;48.514;14.394;2023-07-02T01:58:08;4.80;;;2.60;;
64210;SDS011;50528;48.514;14.394;2023-07-02T01:58:42;4.30;;;2.90;;
64210;SDS011;50528;48.514;14.394;2023-07-02T01:59:17;5.00;;;3.00;;
64210;SDS011;50528;48.514;14.394;2023-07-02T01:59:50;5.00;;;2.60;;
64210;SDS011;50528;48.514;14.394;2023-07-02T02:00:26;4.30;;;2.80;;
64210;SDS011;50528;48.514;14.394;2023-07-02T02:01:00;4.40;;;2.60;;
64210;SDS011;50528;48.514;14.394;2023-07-02T02:01:34;4.20;;;2.50;;
64210;SDS011;50528;48.514;14.394;2023-07-02T02:02:09;4.40;;;2.70;;
64210;SDS011;50528;48.514;14.394;2023-07-02T02:02:44;3.30;;;2.60;;
64210;SDS011;50528;48.514;14.394;2023-07-02T02:03:18;6.10;;;2.50;;
64210;SDS011;50528;48.514;14.394;2023-07-02T02:03:52;4.70;;;2.60;;
64210;SDS011;50528;48.514;14.394;2023-07-02T02:04:26;4.60;;;2.80;;
64210;SDS011;50528;48.514;14.394;2023-07-02T02:05:00;3.20;;;2.40;;
64210;SDS011;50528;48.514;14.394;2023-07-02T02:05:34;4.00;;;2.40;;
64210;SDS011;50528;48.514;14.394;2023-07-02T02:06:10;3.60;;;2.60;;
64210;SDS011;50528;48.514;14.394;2023-07-02T02:06:44;5.20;;;2.60;;
64210;SDS011;50528;48.514;14.394;2023-07-02T02:07:18;5.60;;;2.30;;
64210;SDS011;50528;48.514;14.394;2023-07-02T02:07:52;4.10;;;2.30;;
64210;SDS011;50528;48.514;14.394;2023-07-02T02:08:32;4.50;;;2.50;;
64210;SDS011;50528;48.514;14.394;2023-07-02T02:09:05;2.90;;;2.10;;
64210;SDS011;50528;48.514;14.394;2023-07-02T02:09:40;3.10;;;2.20;;
64210;SDS011;50528;48.514;14.394;2023-07-02T02:10:13;5.60;;;2.40;;
64210;SDS011;50528;48.514;14.394;2023-07-02T02:10:47;3.80;;;2.60;;
64210;SDS011;50528;48.514;14.394;2023-07-02T02:11:22;5.80;;;2.20;;
64210;SDS011;50528;48.514;14.394;2023-07-02T02:11:56;4.50;;;2.40;;
64210;SDS011;50528;48.514;14.394;2023-07-02T02:12:29;3.20;;;2.10;;
64210;SDS011;50528;48.514;14.394;2023-07-02T02:13:03;4.70;;;2.20;;
64210;SDS011;50528;48.514;14.394;2023-07-02T02:13:39;4.20;;;2.30;;
64210;SDS011;50528;48.514;14.394;2023-07-02T02:14:13;4.20;;;2.30;;
64210;SDS011;50528;48.514;14.394;2023-07-02T02:14:47;4.50;;;2.30;;
64210;SDS011;50528;48.514;14.394;2023-07-02T02:15:21;4.00;;;2.00;;
64210;SDS011;50528;48.514;14.394;2023-07-02T02:15:54;5.70;;;2.20;;
64210;SDS011;50528;48.514;14.394;2023-07-02T02:16:29;3.40;;;2.10;;
64210;SDS011;50528;48.514;14.394;2023-07-02T02:17:03;5.70;;;2.10;;
64210;SDS011;50528;48.514;14.394;2023-07-02T02:17:36;3.30;;;2.00;;
64210;SDS011;50528;48.514;14.394;2023-07-02T02:18:11;3.40;;;2.00;;
64210;SDS011;50528;48.514;14.394;2023-07-02T02:18:46;3.40;;;2.00;;
64210;SDS011;50528;48.514;14.394;2023-07-02T02:19:20;3.50;;;1.80;;
64210;SDS011;50528;48.514;14.394;2023-07-02T02:19:54;3.60;;;2.00;;
64210;SDS011;50528;48.514;14.394;2023-07-02T02:20:27;4.20;;;2.00;;
64210;SDS011;50528;48.514;14.394;2023-07-02T02:21:04;3.30;;;2.10;;
64210;SDS011;50528;48.514;14.394;2023-07-02T02:21:38;2.80;;;1.90;;
64210;SDS011;50528;48.514;14.394;2023-07-02T02:22:13;3.10;;;2.20;;
64210;SDS011;50528;48.514;14.394;2023-07-02T02:22:56;4.00;;;1.90;;
64210;SDS011;50528;48.514;14.394;2023-07-02T02:23:31;2.90;;;1.90;;
64210;SDS011;50528;48.514;14.394;2023-07-02T02:24:05;3.20;;;2.20;;
64210;SDS011;50528;48.514;14.394;2023-07-02T02:24:54;4.50;;;2.10;;
64210;SDS011;50528;48.514;14.394;2023-07-02T02:25:29;5.70;;;2.10;;
64210;SDS011;50528;48.514;14.394;2023-07-02T02:26:09;3.60;;;2.20;;
64210;SDS011;50528;48.514;14.394;2023-07-02T02:26:43;4.50;;;2.10;;
64210;SDS011;50528;48.514;14.394;2023-07-02T02:27:17;3.50;;;2.10;;
64210;SDS011;50528;48.514;14.394;2023-07-02T02:27:50;4.50;;;2.20;;
64210;SDS011;50528;48.514;14.394;2023-07-02T02:28:24;3.50;;;2.10;;
64210;SDS011;50528;48.514;14.394;2023-07-02T02:28:58;3.80;;;2.20;;
64210;SDS011;50528;48.514;14.394;2023-07-02T02:29:32;4.80;;;2.20;;
64210;SDS011;50528;48.514;14.394;2023-07-02T02:30:06;2.80;;;2.10;;
64210;SDS011;50528;48.514;14.394;2023-07-02T02:30:40;3.40;;;2.10;;
64210;SDS011;50528;48.514;14.394;2023-07-02T02:31:14;6.10;;;2.20;;
64210;SDS011;50528;48.514;14.394;2023-07-02T02:31:49;3.30;;;2.50;;
64210;SDS011;50528;48.514;14.394;2023-07-02T02:32:23;3.20;;;2.10;;
64210;SDS011;50528;48.514;14.394;2023-07-02T02:32:57;4.60;;;2.30;;
64210;SDS011;50528;48.514;14.394;2023-07-02T02:33:32;4.50;;;2.70;;
64210;SDS011;50528;48.514;14.394;2023-07-02T02:34:06;3.00;;;2.30;;
64210;SDS011;50528;48.514;14.394;2023-07-02T02:34:40;3.00;;;2.20;;
64210;SDS011;50528;48.514;14.394;2023-07-02T02:35:14;5.00;;;2.50;;
64210;SDS011;50528;48.514;14.394;2023-07-02T02:35:50;3.30;;;2.50;;
64210;SDS011;50528;48.514;14.394;2023-07-02T02:36:24;3.30;;;2.60;;
64210;SDS011;50528;48.514;14.394;2023-07-02T02:36:58;4.20;;;2.70;;
64210;SDS011;50528;48.514;14.394;2023-07-02T02:37:33;3.90;;;2.40;;
64210;SDS011;50528;48.514;14.394;2023-07-02T02:38:07;3.90;;;2.70;;
64210;SDS011;50528;48.514;14.394;2023-07-02T02:38:41;4.60;;;2.30;;
64210;SDS011;50528;48.514;14.394;2023-07-02T02:39:24;3.50;;;2.40;;
64210;SDS011;50528;48.514;14.394;2023-07-02T02:39:58;4.60;;;2.50;;
64210;SDS011;50528;48.514;14.394;2023-07-02T02:40:32;4.10;;;2.50;;
64210;SDS011;50528;48.514;14.394;2023-07-02T02:41:05;4.30;;;2.70;;
64210;SDS011;50528;48.514;14.394;2023-07-02T02:41:45;3.00;;;2.60;;
64210;SDS011;50528;48.514;14.394;2023-07-02T02:42:19;4.60;;;3.20;;
64210;SDS011;50528;48.514;14.394;2023-07-02T02:42:52;3.80;;;3.00;;
64210;SDS011;50528;48.514;14.394;2023-07-02T02:43:26;4.40;;;3.00;;
64210;SDS011;50528;48.514;14.394;2023-07-02T02:44:00;4.00;;;3.00;;
64210;SDS011;50528;48.514;14.394;2023-07-02T02:44:33;4.50;;;2.80;;
64210;SDS011;50528;48.514;14.394;2023-07-02T02:45:07;4.10;;;2.90;;
64210;SDS011;50528;48.514;14.394;2023-07-02T02:45:41;4.10;;;2.60;;
64210;SDS011;50528;48.514;14.394;2023-07-02T02:46:19;4.40;;;2.70;;
64210;SDS011;50528;48.514;14.394;2023-07-02T02:46:55;4.10;;;2.70;;
64210;SDS011;50528;48.514;14.394;2023-07-02T02:47:28;4.20;;;2.90;;
64210;SDS011;50528;48.514;14.394;2023-07-02T02:48:02;5.00;;;3.10;;
64210;SDS011;50528;48.514;14.394;2023-07-02T02:48:36;4.20;;;2.80;;
64210;SDS011;50528;48.514;14.394;2023-07-02T02:49:10;4.30;;;3.10;;
64210;SDS011;50528;48.514;14.394;2023-07-02T02:49:44;5.40;;;3.10;;
64210;SDS011;50528;48.514;14.394;2023-07-02T02:50:18;5.10;;;3.00;;
64210;SDS011;50528;48.514;14.394;2023-07-02T02:50:52;3.80;;;3.10;;
64210;SDS011;50528;48.514;14.394;2023-07-02T02:51:25;4.30;;;3.10;;
64210;SDS011;50528;48.514;14.394;2023-07-02T02:51:59;7.30;;;3.30;;
64210;SDS011;50528;48.514;14.394;2023-07-02T02:52:33;4.10;;;3.10;;
64210;SDS011;50528;48.514;14.394;2023-07-02T02:53:09;3.80;;;3.10;;
64210;SDS011;50528;48.514;14.394;2023-07-02T02:53:43;4.00;;;3.00;;
64210;SDS011;50528;48.514;14.394;2023-07-02T02:54:17;4.40;;;3.20;;
64210;SDS011;50528;48.514;14.394;2023-07-02T02:54:50;3.80;;;3.10;;
64210;SDS011;50528;48.514;14.394;2023-07-02T02:55:26;4.10;;;2.90;;
64210;SDS011;50528;48.514;14.394;2023-07-02T02:55:59;3.70;;;3.20;;
64210;SDS011;50528;48.514;14.394;2023-07-02T02:56:33;5.80;;;3.30;;
64210;SDS011;50528;48.514;14.394;2023-07-02T02:57:07;4.20;;;2.90;;
64210;SDS011;50528;48.514;14.394;2023-07-02T02:57:40;4.00;;;2.80;;
64210;SDS011;50528;48.514;14.394;2023-07-02T02:58:14;5.10;;;2.90;;
64210;SDS011;50528;48.514;14.394;2023-07-02T02:58:47;4.10;;;2.80;;
64210;SDS011;50528;48.514;14.394;2023-07-02T02:59:21;3.50;;;2.80;;
64210;SDS011;50528;48.514;14.394;2023-07-02T02:59:55;3.30;;;2.80;;
64210;SDS011;50528;48.514;14.394;2023-07-02T03:00:29;4.20;;;2.70;;
64210;SDS011;50528;48.514;14.394;2023-07-02T03:01:02;3.90;;;2.80;;
64210;SDS011;50528;48.514;14.394;2023-07-02T03:01:43;3.60;;;2.80;;
64210;SDS011;50528;48.514;14.394;2023-07-02T03:02:17;4.50;;;3.00;;
64210;SDS011;50528;48.514;14.394;2023-07-02T03:02:51;5.50;;;2.70;;
64210;SDS011;50528;48.514;14.394;2023-07-02T03:03:24;3.50;;;2.80;;
64210;SDS011;50528;48.514;14.394;2023-07-02T03:03:58;3.90;;;2.80;;
64210;SDS011;50528;48.514;14.394;2023-07-02T03:04:32;4.40;;;2.90;;
64210;SDS011;50528;48.514;14.394;2023-07-02T03:05:08;3.10;;;2.50;;
64210;SDS011;50528;48.514;14.394;2023-07-02T03:05:41;4.30;;;2.80;;
64210;SDS011;50528;48.514;14.394;2023-07-02T03:06:17;3.60;;;2.70;;
64210;SDS011;50528;48.514;14.394;2023-07-02T03:06:51;4.00;;;2.40;;
64210;SDS011;50528;48.514;14.394;2023-07-02T03:07:26;3.10;;;2.50;;
64210;SDS011;50528;48.514;14.394;2023-07-02T03:07:59;4.20;;;2.60;;
64210;SDS011;50528;48.514;14.394;2023-07-02T03:08:33;3.90;;;2.30;;
64210;SDS011;50528;48.514;14.394;2023-07-02T03:09:09;2.90;;;2.40;;
64210;SDS011;50528;48.514;14.394;2023-07-02T03:09:43;3.60;;;2.50;;
64210;SDS011;50528;48.514;14.394;2023-07-02T03:10:17;4.50;;;2.20;;
64210;SDS011;50528;48.514;14.394;2023-07-02T03:10:50;3.10;;;2.20;;
64210;SDS011;50528;48.514;14.394;2023-07-02T03:11:24;3.00;;;2.20;;
64210;SDS011;50528;48.514;14.394;2023-07-02T03:11:57;4.50;;;2.30;;
64210;SDS011;50528;48.514;14.394;2023-07-02T03:12:31;3.70;;;2.50;;
64210;SDS011;50528;48.514;14.394;2023-07-02T03:13:05;2.90;;;2.50;;
64210;SDS011;50528;48.514;14.394;2023-07-02T03:13:38;3.50;;;2.60;;
64210;SDS011;50528;48.514;14.394;2023-07-02T03:14:12;3.00;;;2.40;;
64210;SDS011;50528;48.514;14.394;2023-07-02T03:14:45;3.50;;;2.10;;
64210;SDS011;50528;48.514;14.394;2023-07-02T03:15:20;3.30;;;2.30;;
64210;SDS011;50528;48.514;14.394;2023-07-02T03:15:54;3.30;;;2.10;;
64210;SDS011;50528;48.514;14.394;2023-07-02T03:16:27;2.70;;;2.10;;
64210;SDS011;50528;48.514;14.394;2023-07-02T03:17:01;3.10;;;2.30;;
64210;SDS011;50528;48.514;14.394;2023-07-02T03:17:36;3.40;;;2.20;;
64210;SDS011;50528;48.514;14.394;2023-07-02T03:18:09;4.30;;;2.40;;
64210;SDS011;50528;48.514;14.394;2023-07-02T03:18:43;2.60;;;2.00;;
64210;SDS011;50528;48.514;14.394;2023-07-02T03:19:16;2.60;;;2.00;;
64210;SDS011;50528;48.514;14.394;2023-07-02T03:19:50;3.70;;;2.40;;
64210;SDS011;50528;48.514;14.394;2023-07-02T03:20:23;4.50;;;2.20;;
64210;SDS011;50528;48.514;14.394;2023-07-02T03:20:57;2.80;;;2.30;;
64210;SDS011;50528;48.514;14.394;2023-07-02T03:21:31;2.80;;;2.10;;
64210;SDS011;50528;48.514;14.394;2023-07-02T03:22:05;3.50;;;2.30;;
64210;SDS011;50528;48.514;14.394;2023-07-02T03:22:39;2.60;;;2.00;;
64210;SDS011;50528;48.514;14.394;2023-07-02T03:23:12;2.70;;;1.90;;
64210;SDS011;50528;48.514;14.394;2023-07-02T03:23:46;2.60;;;2.00;;
64210;SDS011;50528;48.514;14.394;2023-07-02T03:24:19;4.10;;;2.20;;
64210;SDS011;50528;48.514;14.394;2023-07-02T03:24:53;3.30;;;1.90;;
64210;SDS011;50528;48.514;14.394;2023-07-02T03:25:26;2.60;;;2.00;;
64210;SDS011;50528;48.514;14.394;2023-07-02T03:26:00;2.90;;;2.00;;
64210;SDS011;50528;48.514;14.394;2023-07-02T03:26:34;3.50;;;1.90;;
64210;SDS011;50528;48.514;14.394;2023-07-02T03:27:07;3.10;;;2.10;;
64210;SDS011;50528;48.514;14.394;2023-07-02T03:27:41;3.10;;;2.00;;
64210;SDS011;50528;48.514;14.394;2023-07-02T03:28:14;2.90;;;2.00;;
64210;SDS011;50528;48.514;14.394;2023-07-02T03:28:48;2.70;;;2.00;;
64210;SDS011;50528;48.514;14.394;2023-07-02T03:29:22;2.50;;;1.70;;
64210;SDS011;50528;48.514;14.394;2023-07-02T03:29:55;2.90;;;2.30;;
64210;SDS011;50528;48.514;14.394;2023-07-02T03:30:38;2.60;;;1.90;;
64210;SDS011;50528;48.514;14.394;2023-07-02T03:31:12;3.40;;;2.20;;
64210;SDS011;50528;48.514;14.394;2023-07-02T03:31:58;2.50;;;1.80;;